Terminal Aerodrome Forecast
Issued by NWS Albany, NY

Home | Current Version | Previous Version | Text Only | Print | Product List | Glossary On
Versions: 1 2 3 4 5 6 7 8 9 10 11 12 13 14 15 16 17 18 19 20
000
FTUS41 KALY 302330
TAFPOU
TAF
KPOU 302330Z 3100/3124 02007KT 6SM -RA BR BKN040 OVC120
      TEMPO 3100/3103 3SM -RA BR SCT025 OVC040
     FM310300 00000KT 4SM -RA BR BKN025 OVC040
     FM310800 09002KT 4SM -RA BR OVC007
     FM311300 09004KT 2SM RA BR OVC010=

USA.gov is the U.S. government's official web portal to all federal, state and local government web resources and services.